Terminal Aerodrome Forecast
Issued by NWS

Home | Current Version | Previous Version | Text Only | Print | Product List | Glossary On
Versions: 1 2 3 4 5 6 7 8 9 10 11 12 13 14 15 16 17 18 19 20 21 22 23 24 25 26 27 28 29 30 31 32 33 34 35 36
355
FTUS43 KGLD 291121
TAFMCK
TAF
KMCK 291121Z 2912/3012 05007KT P6SM -SHRA OVC008
     FM291800 05013G19KT 3SM SHRA OVC008
     FM292200 05014G21KT P6SM -SHRA OVC008
     FM300100 03011KT 1SM -SHRA OVC003
     FM300700 36012KT P6SM -SHRA OVC003=

USA.gov is the U.S. government's official web portal to all federal, state and local government web resources and services.